createdAt,value
2023-05-02T00:00:51.451Z,11.02
2023-05-02T00:03:18.524Z,11.01
2023-05-02T00:05:45.402Z,11.01
2023-05-02T00:08:12.762Z,10.98
2023-05-02T00:10:39.568Z,10.94
2023-05-02T00:13:06.225Z,10.95
2023-05-02T00:15:32.915Z,11.04
2023-05-02T00:18:00.357Z,10.97
2023-05-02T00:20:27.170Z,10.98
2023-05-02T00:22:55.282Z,10.97
2023-05-02T00:25:22.077Z,10.99
2023-05-02T00:27:51.021Z,10.98
2023-05-02T00:30:18.734Z,11.04
2023-05-02T00:32:45.928Z,11.10
2023-05-02T00:35:12.887Z,10.97
2023-05-02T00:37:39.731Z,11.07
2023-05-02T00:40:08.106Z,11.03
2023-05-02T00:42:36.407Z,11.04
2023-05-02T00:45:06.518Z,11.07
2023-05-02T00:47:33.841Z,11.00
2023-05-02T00:50:02.190Z,10.98
2023-05-02T00:52:29.419Z,10.90
2023-05-02T00:54:56.557Z,10.91
2023-05-02T00:57:23.456Z,10.91
2023-05-02T00:59:51.357Z,10.85
2023-05-02T01:02:51.101Z,10.80
2023-05-02T01:05:24.991Z,10.74
2023-05-02T01:08:12.820Z,10.61
2023-05-02T01:11:03.743Z,10.58
2023-05-02T01:13:34.065Z,10.41
2023-05-02T01:16:03.340Z,10.17
2023-05-02T01:18:38.706Z,10.03
2023-05-02T01:21:09.116Z,9.91
2023-05-02T01:23:46.354Z,9.84
2023-05-02T01:26:43.731Z,9.72
2023-05-02T01:29:14.327Z,9.63
2023-05-02T01:31:44.278Z,9.53
2023-05-02T01:34:12.265Z,9.45
2023-05-02T01:36:44.997Z,9.25
2023-05-02T01:39:15.955Z,8.82
2023-05-02T01:41:43.590Z,8.61
2023-05-02T01:44:12.010Z,8.45
2023-05-02T01:46:42.300Z,8.38
2023-05-02T01:49:09.328Z,8.29
2023-05-02T01:51:40.754Z,8.19
2023-05-02T01:54:09.037Z,8.14
2023-05-02T01:56:38.575Z,7.96
2023-05-02T01:59:11.087Z,7.83
2023-05-02T02:01:40.205Z,7.72
2023-05-02T02:04:10.114Z,7.58
2023-05-02T02:06:37.368Z,7.56
2023-05-02T02:09:04.240Z,7.49
2023-05-02T02:11:47.754Z,7.47
2023-05-02T02:14:21.499Z,7.43
2023-05-02T02:16:50.909Z,7.36
2023-05-02T02:19:18.717Z,7.37
2023-05-02T02:21:48.059Z,7.38
2023-05-02T02:24:18.403Z,7.40
2023-05-02T02:26:46.487Z,7.45
2023-05-02T02:29:13.185Z,7.39
2023-05-02T02:31:39.912Z,7.39
2023-05-02T02:34:06.981Z,7.41
2023-05-02T02:36:47.885Z,7.35
2023-05-02T02:39:32.983Z,7.29
2023-05-02T02:42:36.157Z,7.32
2023-05-02T02:45:34.236Z,7.34
2023-05-02T02:48:27.860Z,7.30
2023-05-02T02:51:22.431Z,7.24
2023-05-02T02:53:55.044Z,7.25
2023-05-02T02:56:36.334Z,7.18
2023-05-02T02:59:27.897Z,7.19
2023-05-02T03:02:14.819Z,7.17
2023-05-02T03:04:43.297Z,7.10
2023-05-02T03:07:10.708Z,7.06
2023-05-02T03:09:45.325Z,7.02
2023-05-02T03:12:12.402Z,7.02
2023-05-02T03:14:39.826Z,7.08
2023-05-02T03:17:08.482Z,7.05
2023-05-02T03:19:35.447Z,7.02
2023-05-02T03:22:02.113Z,7.06
2023-05-02T03:24:28.867Z,7.07
2023-05-02T03:26:56.966Z,7.06
2023-05-02T03:29:24.487Z,7.05
2023-05-02T03:31:51.776Z,7.05
2023-05-02T03:34:19.752Z,6.99
2023-05-02T03:36:46.397Z,7.02
2023-05-02T03:39:12.972Z,7.07
2023-05-02T03:41:39.865Z,6.96
2023-05-02T03:44:06.674Z,7.01
2023-05-02T03:46:33.443Z,6.99
2023-05-02T03:49:00.216Z,7.02
2023-05-02T03:51:26.929Z,7.01
2023-05-02T03:53:53.594Z,6.92
2023-05-02T03:56:20.750Z,6.81
2023-05-02T03:58:49.007Z,6.77
2023-05-02T04:01:16.808Z,6.75
2023-05-02T04:03:43.666Z,6.71
2023-05-02T04:06:10.896Z,6.66
2023-05-02T04:08:37.661Z,6.73
2023-05-02T04:11:04.538Z,6.77
2023-05-02T04:13:31.257Z,6.70
2023-05-02T04:15:57.928Z,6.67
2023-05-02T04:18:24.743Z,6.64
2023-05-02T04:20:51.506Z,6.67
2023-05-02T04:23:18.180Z,6.71
2023-05-02T04:25:52.881Z,6.72
2023-05-02T04:28:23.004Z,6.72
2023-05-02T04:30:50.481Z,6.67
2023-05-02T04:33:18.536Z,6.84
2023-05-02T04:35:45.407Z,6.79
2023-05-02T04:38:12.112Z,6.74
2023-05-02T04:40:39.057Z,6.79
2023-05-02T04:43:05.880Z,6.75
2023-05-02T04:45:32.736Z,6.84
2023-05-02T04:47:59.549Z,6.92
2023-05-02T04:50:28.333Z,6.98
2023-05-02T04:52:55.063Z,7.04
2023-05-02T04:55:21.815Z,7.16
2023-05-02T04:57:48.652Z,7.10
2023-05-02T05:00:16.221Z,7.14
2023-05-02T05:02:43.390Z,7.20
2023-05-02T05:05:10.378Z,7.27
2023-05-02T05:07:37.421Z,7.24
2023-05-02T05:10:04.259Z,7.12
2023-05-02T05:12:30.921Z,7.23
2023-05-02T05:14:57.632Z,7.24
2023-05-02T05:17:24.295Z,7.20
2023-05-02T05:19:51.071Z,7.25
2023-05-02T05:22:17.764Z,7.27
2023-05-02T05:24:51.798Z,7.38
2023-05-02T05:27:18.522Z,7.43
2023-05-02T05:29:45.438Z,7.31
2023-05-02T05:32:12.379Z,7.38
2023-05-02T05:34:39.152Z,7.41
2023-05-02T05:37:06.363Z,7.34
2023-05-02T05:39:33.259Z,7.33
2023-05-02T05:42:00.757Z,7.46
2023-05-02T05:44:27.399Z,7.46
2023-05-02T05:46:54.436Z,7.40
2023-05-02T05:49:22.158Z,7.53
2023-05-02T05:51:48.817Z,7.48
2023-05-02T05:54:17.085Z,7.49
2023-05-02T05:56:44.206Z,7.60
2023-05-02T05:59:10.962Z,7.58
2023-05-02T06:01:38.178Z,7.70
2023-05-02T06:04:05.363Z,7.61
2023-05-02T06:06:32.857Z,7.63
2023-05-02T06:09:00.223Z,7.59
2023-05-02T06:11:27.010Z,7.65
2023-05-02T06:13:54.123Z,7.82
2023-05-02T06:16:22.463Z,7.68
2023-05-02T06:18:51.670Z,7.82
2023-05-02T06:21:18.701Z,7.82
2023-05-02T06:23:46.014Z,7.88
2023-05-02T06:26:12.844Z,7.71
2023-05-02T06:28:39.628Z,7.91
2023-05-02T06:31:06.524Z,7.80
2023-05-02T06:33:34.247Z,7.95
2023-05-02T06:36:01.873Z,7.95
2023-05-02T06:38:29.094Z,8.09
2023-05-02T06:40:55.932Z,8.07
2023-05-02T06:43:22.734Z,8.07
2023-05-02T06:45:52.295Z,8.33
2023-05-02T06:48:19.271Z,8.53
2023-05-02T06:50:47.183Z,8.41
2023-05-02T06:53:14.109Z,8.54
2023-05-02T06:55:40.901Z,8.55
2023-05-02T06:58:07.665Z,8.48
2023-05-02T07:00:34.401Z,8.38
2023-05-02T07:03:01.290Z,8.51
2023-05-02T07:05:29.223Z,8.49
2023-05-02T07:07:56.032Z,8.43
2023-05-02T07:10:22.866Z,8.55
2023-05-02T07:12:49.548Z,8.50
2023-05-02T07:15:17.078Z,8.66
2023-05-02T07:17:44.728Z,8.65
2023-05-02T07:20:12.446Z,8.95
2023-05-02T07:22:39.178Z,8.86
2023-05-02T07:25:06.407Z,9.26
2023-05-02T07:27:33.034Z,9.33
2023-05-02T07:29:59.952Z,9.28
2023-05-02T07:32:27.302Z,9.31
2023-05-02T07:34:55.037Z,9.75
2023-05-02T07:37:22.081Z,9.53
2023-05-02T07:39:48.863Z,9.72
2023-05-02T07:42:15.586Z,9.85
2023-05-02T07:44:42.475Z,9.47
2023-05-02T07:47:09.850Z,9.40
2023-05-02T07:49:36.967Z,9.82
2023-05-02T07:52:04.530Z,9.27
2023-05-02T07:54:31.199Z,9.14
2023-05-02T07:57:02.228Z,9.22
2023-05-02T07:59:31.342Z,9.79
2023-05-02T08:01:58.305Z,9.82
2023-05-02T08:04:25.444Z,11.02
2023-05-02T08:06:52.772Z,10.95
2023-05-02T08:09:19.648Z,11.34
2023-05-02T08:11:46.653Z,10.59
2023-05-02T08:14:13.928Z,10.30
2023-05-02T08:16:40.779Z,10.06
2023-05-02T08:19:07.863Z,9.69
2023-05-02T08:21:34.707Z,9.90
2023-05-02T08:24:01.510Z,10.15
2023-05-02T08:26:28.553Z,9.66
2023-05-02T08:28:55.616Z,9.96
2023-05-02T08:31:22.576Z,10.74
2023-05-02T08:33:49.427Z,11.17
2023-05-02T08:36:17.733Z,10.75
2023-05-02T08:38:45.775Z,10.31
2023-05-02T08:41:18.750Z,10.24
2023-05-02T08:43:46.812Z,10.88
2023-05-02T08:46:15.252Z,10.95
2023-05-02T08:48:43.844Z,10.36
2023-05-02T08:51:14.084Z,10.84
2023-05-02T08:53:41.860Z,10.43
2023-05-02T08:56:10.353Z,10.39
2023-05-02T08:58:41.126Z,10.55
2023-05-02T09:01:15.364Z,10.44
2023-05-02T09:03:44.773Z,10.73
2023-05-02T09:06:16.992Z,10.34
2023-05-02T09:08:45.973Z,10.57
2023-05-02T09:11:13.442Z,10.85
2023-05-02T09:13:47.694Z,11.26
2023-05-02T09:16:17.113Z,11.47
2023-05-02T09:24:22.145Z,11.10
2023-05-02T09:27:05.667Z,11.37
2023-05-02T09:29:38.801Z,10.94
2023-05-02T09:32:06.982Z,11.21
2023-05-02T09:34:34.330Z,10.94
2023-05-02T09:37:01.579Z,10.85
2023-05-02T09:39:31.647Z,11.30
2023-05-02T09:41:59.327Z,11.21
2023-05-02T09:44:27.562Z,11.31
2023-05-02T09:46:56.011Z,11.06
2023-05-02T09:49:44.747Z,10.88
2023-05-02T09:52:22.817Z,10.64
2023-05-02T09:54:53.151Z,10.90
2023-05-02T09:57:20.062Z,10.97
2023-05-02T09:59:57.457Z,10.97
2023-05-02T10:02:25.998Z,10.85
2023-05-02T10:04:56.013Z,10.61
2023-05-02T10:07:22.992Z,10.48
2023-05-02T10:09:54.589Z,10.90
2023-05-02T10:12:24.454Z,11.22
2023-05-02T10:15:01.242Z,11.00
2023-05-02T10:17:32.258Z,11.19
2023-05-02T10:20:07.176Z,10.93
2023-05-02T10:22:35.970Z,11.19
2023-05-02T10:25:04.223Z,11.08
2023-05-02T10:27:32.281Z,11.29
2023-05-02T10:30:00.530Z,10.95
2023-05-02T10:32:29.511Z,11.47
2023-05-02T10:35:04.369Z,11.08
2023-05-02T10:37:33.963Z,11.36
2023-05-02T10:40:01.328Z,11.87
2023-05-02T10:42:30.313Z,11.29
2023-05-02T10:44:57.016Z,11.25
2023-05-02T10:47:26.963Z,10.98
2023-05-02T10:49:59.865Z,11.28
2023-05-02T10:52:35.405Z,11.37
2023-05-02T10:55:19.469Z,11.64
2023-05-02T10:58:00.913Z,11.81
2023-05-02T11:00:29.819Z,11.75
2023-05-02T11:02:56.875Z,11.98
2023-05-02T11:05:24.957Z,12.28
2023-05-02T11:08:27.468Z,12.05
2023-05-02T11:10:54.127Z,12.03
2023-05-02T11:13:49.063Z,12.72
2023-05-02T11:16:15.864Z,12.57
2023-05-02T11:18:59.348Z,13.12
2023-05-02T11:21:28.835Z,13.07
2023-05-02T11:24:33.171Z,12.96
2023-05-02T11:27:35.648Z,12.51
2023-05-02T11:30:07.221Z,11.89
2023-05-02T11:32:46.868Z,11.56
2023-05-02T11:35:27.035Z,12.64
2023-05-02T11:37:58.013Z,11.84
2023-05-02T11:40:26.074Z,11.99
2023-05-02T11:42:53.264Z,11.49
2023-05-02T11:45:23.594Z,11.60
2023-05-02T11:47:51.605Z,12.05
2023-05-02T11:50:18.520Z,11.97
2023-05-02T11:52:46.127Z,11.55
2023-05-02T11:55:15.037Z,11.65
2023-05-02T11:57:43.016Z,11.69
2023-05-02T12:00:13.258Z,11.91
2023-05-02T12:02:42.215Z,12.39
2023-05-02T12:05:11.732Z,13.04
2023-05-02T12:07:46.230Z,12.49
2023-05-02T12:10:14.387Z,12.22
2023-05-02T12:12:43.698Z,12.34
2023-05-02T12:15:12.165Z,12.37
2023-05-02T12:17:41.467Z,12.39
2023-05-02T12:20:10.113Z,12.54
2023-05-02T12:22:37.886Z,13.07
2023-05-02T12:25:05.809Z,12.96
2023-05-02T12:27:36.069Z,12.85
2023-05-02T12:30:03.145Z,12.55
2023-05-02T12:32:36.397Z,12.50
2023-05-02T12:35:04.321Z,12.61
2023-05-02T12:37:31.130Z,12.59
2023-05-02T12:39:57.939Z,12.47
2023-05-02T12:42:26.787Z,12.22
2023-05-02T12:44:53.582Z,12.83
2023-05-02T12:47:22.841Z,12.51
2023-05-02T12:49:54.464Z,12.46
2023-05-02T12:52:41.569Z,12.88
2023-05-02T12:55:24.378Z,12.65
2023-05-02T12:57:51.686Z,13.04
2023-05-02T13:00:18.371Z,13.38
2023-05-02T13:02:45.136Z,13.09
2023-05-02T13:05:16.218Z,13.02
2023-05-02T13:07:43.131Z,13.15
2023-05-02T13:10:11.210Z,13.58
2023-05-02T13:12:38.521Z,13.47
2023-05-02T13:15:07.099Z,13.17
2023-05-02T13:17:34.799Z,12.97
2023-05-02T13:20:02.539Z,12.29
2023-05-02T13:22:29.781Z,12.51
2023-05-02T13:24:56.500Z,12.10
2023-05-02T13:27:23.731Z,12.41
2023-05-02T13:29:50.979Z,12.64
2023-05-02T13:32:18.643Z,12.68
2023-05-02T13:34:46.030Z,12.34
2023-05-02T13:37:12.766Z,12.37
2023-05-02T13:39:39.452Z,12.41
2023-05-02T13:42:06.487Z,12.46
2023-05-02T13:44:33.301Z,12.73
2023-05-02T13:46:59.962Z,12.59
2023-05-02T13:49:26.602Z,12.57
2023-05-02T13:51:53.747Z,11.99
2023-05-02T13:54:20.886Z,12.23
2023-05-02T13:56:47.668Z,12.55
2023-05-02T13:59:14.551Z,12.72
2023-05-02T14:01:41.350Z,11.94
2023-05-02T14:04:08.824Z,12.06
2023-05-02T14:06:36.154Z,12.32
2023-05-02T14:09:03.524Z,12.68
2023-05-02T14:11:30.697Z,13.27
2023-05-02T14:13:58.380Z,13.03
2023-05-02T14:16:25.557Z,13.29
2023-05-02T14:18:52.246Z,12.45
2023-05-02T14:21:18.928Z,12.79
2023-05-02T14:23:45.719Z,13.14
2023-05-02T14:26:12.788Z,13.41
2023-05-02T14:28:40.434Z,13.65
2023-05-02T14:31:07.422Z,13.54
2023-05-02T14:33:35.612Z,14.08
2023-05-02T14:36:02.245Z,13.60
2023-05-02T14:38:28.909Z,13.27
2023-05-02T14:40:55.505Z,13.02
2023-05-02T14:43:22.292Z,12.76
2023-05-02T14:45:49.097Z,12.95
2023-05-02T14:48:17.561Z,12.63
2023-05-02T14:50:44.489Z,12.49
2023-05-02T14:53:12.038Z,12.25
2023-05-02T14:55:41.770Z,12.11
2023-05-02T14:58:10.390Z,12.57
2023-05-02T15:00:38.272Z,12.42
2023-05-02T15:03:09.785Z,12.46
2023-05-02T15:05:36.918Z,12.73
2023-05-02T15:08:04.057Z,13.08
2023-05-02T15:10:30.897Z,12.93
2023-05-02T15:12:57.517Z,13.12
2023-05-02T15:15:25.312Z,13.24
2023-05-02T15:17:53.089Z,13.42
2023-05-02T15:20:20.943Z,13.05
2023-05-02T15:22:47.623Z,13.01
2023-05-02T15:25:14.277Z,12.98
2023-05-02T15:27:41.663Z,12.85
2023-05-02T15:30:10.138Z,12.93
2023-05-02T15:32:36.783Z,13.40
2023-05-02T15:35:07.902Z,13.13
2023-05-02T15:37:35.353Z,12.42
2023-05-02T15:40:04.104Z,12.06
2023-05-02T15:42:31.135Z,11.99
2023-05-02T15:44:57.788Z,11.91
2023-05-02T15:47:25.035Z,11.99
2023-05-02T15:49:53.969Z,11.56
2023-05-02T15:52:21.434Z,11.91
2023-05-02T15:54:48.074Z,12.05
2023-05-02T15:57:14.707Z,12.28
2023-05-02T15:59:41.362Z,12.02
2023-05-02T16:02:08.175Z,12.27
2023-05-02T16:04:35.092Z,12.28
2023-05-02T16:07:02.480Z,11.95
2023-05-02T16:09:31.208Z,11.83
2023-05-02T16:11:58.089Z,11.31
2023-05-02T16:14:26.224Z,11.30
2023-05-02T16:16:53.120Z,11.75
2023-05-02T16:19:21.089Z,11.48
2023-05-02T16:21:47.897Z,11.18
2023-05-02T16:24:14.660Z,10.93
2023-05-02T16:26:41.322Z,11.35
2023-05-02T16:29:08.108Z,11.56
2023-05-02T16:31:35.164Z,11.63
2023-05-02T16:34:03.022Z,11.50
2023-05-02T16:36:29.852Z,11.61
2023-05-02T16:38:56.555Z,11.72
2023-05-02T16:41:23.374Z,11.68
2023-05-02T16:43:50.333Z,11.16
2023-05-02T16:46:17.999Z,10.81
2023-05-02T16:48:44.705Z,10.66
2023-05-02T16:51:11.410Z,10.55
2023-05-02T16:53:38.322Z,10.51
2023-05-02T16:56:06.046Z,10.75
2023-05-02T16:58:32.715Z,10.89
2023-05-02T17:01:00.592Z,10.66
2023-05-02T17:03:28.804Z,10.48
2023-05-02T17:05:59.134Z,10.37
2023-05-02T17:08:25.841Z,10.00
2023-05-02T17:10:52.639Z,9.90
2023-05-02T17:13:19.341Z,9.73
2023-05-02T17:15:46.424Z,9.71
2023-05-02T17:18:13.171Z,9.73
2023-05-02T17:20:39.989Z,9.75
2023-05-02T17:23:07.077Z,9.78
2023-05-02T17:25:33.782Z,9.81
2023-05-02T17:28:01.790Z,9.77
2023-05-02T17:30:29.105Z,10.04
2023-05-02T17:32:55.847Z,9.98
2023-05-02T17:35:22.585Z,10.12
2023-05-02T17:37:49.308Z,9.91
2023-05-02T17:40:16.036Z,9.76
2023-05-02T17:42:46.803Z,9.67
2023-05-02T17:45:13.768Z,9.68
2023-05-02T17:47:40.893Z,9.70
2023-05-02T17:50:08.707Z,9.65
2023-05-02T17:52:35.652Z,9.57
2023-05-02T17:55:02.631Z,9.57
2023-05-02T17:57:29.420Z,9.54
2023-05-02T17:59:59.827Z,9.44
2023-05-02T18:02:29.774Z,9.47
2023-05-02T18:04:58.905Z,9.42
2023-05-02T18:07:34.738Z,9.33
2023-05-02T18:10:04.217Z,9.24
2023-05-02T18:12:32.269Z,9.13
2023-05-02T18:14:59.071Z,9.11
2023-05-02T18:17:27.030Z,9.16
2023-05-02T18:19:53.792Z,9.03
2023-05-02T18:22:21.728Z,9.01
2023-05-02T18:24:49.661Z,8.99
2023-05-02T18:27:17.205Z,8.98
2023-05-02T18:29:43.946Z,8.94
2023-05-02T18:32:11.053Z,8.87
2023-05-02T18:34:39.067Z,8.77
2023-05-02T18:37:06.949Z,8.79
2023-05-02T18:39:34.362Z,8.73
2023-05-02T18:42:03.057Z,8.62
2023-05-02T18:44:30.821Z,8.59
2023-05-02T18:46:57.972Z,8.57
2023-05-02T18:49:26.136Z,8.50
2023-05-02T18:51:56.963Z,8.51
2023-05-02T18:54:24.401Z,8.38
2023-05-02T18:56:51.639Z,8.35
2023-05-02T18:59:19.051Z,8.29
2023-05-02T19:01:48.513Z,8.23
2023-05-02T19:04:15.450Z,8.15
2023-05-02T19:06:42.410Z,8.21
2023-05-02T19:09:09.186Z,8.18
2023-05-02T19:11:36.722Z,8.10
2023-05-02T19:14:03.658Z,8.10
2023-05-02T19:16:31.711Z,8.00
2023-05-02T19:18:58.472Z,8.13
2023-05-02T19:21:25.282Z,8.02
2023-05-02T19:23:52.788Z,7.98
2023-05-02T19:26:19.952Z,7.93
2023-05-02T19:28:46.725Z,7.90
2023-05-02T19:31:17.464Z,7.78
2023-05-02T19:33:54.648Z,7.97
2023-05-02T19:36:23.521Z,7.81
2023-05-02T19:38:52.171Z,7.72
2023-05-02T19:41:18.919Z,7.73
2023-05-02T19:43:47.211Z,7.73
2023-05-02T19:46:15.121Z,7.60
2023-05-02T19:48:41.982Z,7.49
2023-05-02T19:51:08.900Z,7.55
2023-05-02T19:53:37.206Z,7.56
2023-05-02T19:56:05.343Z,7.51
2023-05-02T19:58:31.992Z,7.46
2023-05-02T20:00:59.302Z,7.50
2023-05-02T20:03:26.164Z,7.42
2023-05-02T20:05:52.968Z,7.46
2023-05-02T20:08:20.948Z,7.42
2023-05-02T20:10:48.950Z,7.31
2023-05-02T20:13:15.727Z,7.29
2023-05-02T20:15:42.432Z,7.21
2023-05-02T20:18:09.191Z,7.17
2023-05-02T20:20:35.963Z,7.14
2023-05-02T20:23:02.703Z,7.05
2023-05-02T20:25:29.583Z,7.00
2023-05-02T20:27:56.223Z,6.99
2023-05-02T20:30:23.141Z,6.89
2023-05-02T20:32:50.011Z,6.85
2023-05-02T20:35:17.129Z,6.78
2023-05-02T20:37:44.065Z,6.82
2023-05-02T20:40:11.253Z,6.72
2023-05-02T20:42:40.317Z,6.68
2023-05-02T20:45:09.268Z,6.65
2023-05-02T20:47:36.108Z,6.66
2023-05-02T20:50:03.250Z,6.61
2023-05-02T20:52:30.772Z,6.48
2023-05-02T20:54:57.518Z,6.48
2023-05-02T20:57:24.459Z,6.45
2023-05-02T20:59:51.231Z,6.48
2023-05-02T21:02:18.023Z,6.42
2023-05-02T21:04:44.751Z,6.46
2023-05-02T21:07:11.534Z,6.40
2023-05-02T21:09:38.227Z,6.35
2023-05-02T21:12:06.431Z,6.32
2023-05-02T21:14:34.547Z,6.26
2023-05-02T21:17:01.516Z,6.20
2023-05-02T21:19:28.417Z,6.17
2023-05-02T21:21:55.189Z,6.15
2023-05-02T21:24:21.915Z,6.11
2023-05-02T21:26:48.721Z,6.08
2023-05-02T21:29:15.600Z,6.07
2023-05-02T21:31:42.593Z,6.00
2023-05-02T21:34:09.423Z,6.05
2023-05-02T21:36:36.362Z,6.03
2023-05-02T21:39:03.093Z,5.98
2023-05-02T21:41:29.862Z,5.92
2023-05-02T21:43:56.693Z,5.95
2023-05-02T21:46:27.904Z,5.92
2023-05-02T21:48:54.637Z,5.93
2023-05-02T21:51:21.511Z,5.86
2023-05-02T21:53:48.202Z,5.84
2023-05-02T21:56:15.155Z,5.68
2023-05-02T21:58:44.537Z,5.59
2023-05-02T22:01:11.401Z,5.60
2023-05-02T22:03:39.103Z,5.66
2023-05-02T22:06:06.786Z,5.74
2023-05-02T22:08:34.171Z,5.52
2023-05-02T22:11:05.136Z,5.51
2023-05-02T22:13:31.790Z,5.48
2023-05-02T22:15:58.527Z,5.52
2023-05-02T22:18:25.214Z,5.45
2023-05-02T22:20:52.665Z,5.46
2023-05-02T22:23:20.192Z,5.38
2023-05-02T22:25:47.031Z,5.47
2023-05-02T22:28:13.941Z,5.36
2023-05-02T22:30:43.078Z,5.39
2023-05-02T22:33:10.125Z,5.32
2023-05-02T22:35:37.833Z,5.33
2023-05-02T22:38:10.927Z,5.31
2023-05-02T22:40:37.663Z,5.22
2023-05-02T22:43:04.587Z,5.18
2023-05-02T22:45:31.262Z,5.10
2023-05-02T22:47:58.060Z,5.16
2023-05-02T22:50:26.245Z,5.19
2023-05-02T22:52:57.275Z,5.17
2023-05-02T22:55:24.574Z,5.15
2023-05-02T22:57:51.824Z,5.10
2023-05-02T23:00:18.734Z,5.04
2023-05-02T23:02:45.787Z,5.03
2023-05-02T23:05:12.583Z,4.98
2023-05-02T23:07:39.332Z,4.90
2023-05-02T23:10:06.848Z,4.90
2023-05-02T23:12:33.649Z,4.92
2023-05-02T23:15:01.580Z,4.88
2023-05-02T23:17:28.593Z,4.97
2023-05-02T23:19:55.276Z,4.98
2023-05-02T23:22:22.039Z,4.97
2023-05-02T23:24:48.859Z,4.96
2023-05-02T23:27:15.583Z,4.96
2023-05-02T23:29:42.489Z,4.91
2023-05-02T23:32:09.310Z,4.83
2023-05-02T23:34:36.619Z,4.84
2023-05-02T23:37:06.183Z,4.77
2023-05-02T23:39:33.456Z,4.71
2023-05-02T23:42:00.800Z,4.62
2023-05-02T23:44:27.591Z,4.63
2023-05-02T23:46:54.350Z,4.60
2023-05-02T23:49:21.647Z,4.58
2023-05-02T23:51:48.389Z,4.56
2023-05-02T23:54:16.019Z,4.55
2023-05-02T23:56:43.200Z,4.51
2023-05-02T23:59:10.956Z,4.52
